Mound House, Nevada
Current Conditions -  °F | °C
As of 7:35 PM on Friday 24 Oct 2014 (Local Time) from KCXP Reporting Station
Clear Clear  
Wind Chill: 68°   Ceiling: Unl
Heat Index: 68°   Visibility: 10mi
Dew Point: 18°   Wind: 7mph
Humidity: 15%   Direction: 190°S
Pressure: 29.99"   Gusts: NA
Location:  39.183°N, 119.605°W
Report Text: KCXP 250235Z AUTO 19006KT 10SM CLR 20/M08 A2999 RMK AO2
Loading
Personal Weather Stations






























Interactive Weather Map
Tropical Storm Tracking
New forecast layout! Learn more

10-Day Weather Forecast

Advertisements
Track Severe Weather on mobile